Time;durP1;ratioP1;P1;durP2;ratioP2;P2;SDS_P1;SDS_P2;PMS_P1;PMS_P2;Temp;Humidity;BMP_temperature;BMP_pressure;BME280_temperature;BME280_humidity;BME280_pressure;Samples;Min_cycle;Max_cycle;Signal;HPM_P1;HPM_P2
2023/10/10 00:01:46;;;;;;;11.47;4.30;;;;;;;15.37;52.77;100384.97;10490469;28;20243;-67
2023/10/10 00:06:49;;;;;;;12.50;4.50;;;;;;;16.32;51.33;100297.75;10436254;28;20322;-66
2023/10/10 00:11:53;;;;;;;12.43;4.67;;;;;;;16.04;51.88;100315.81;10476612;28;20230;-66
2023/10/10 00:16:55;;;;;;;11.57;4.45;;;;;;;16.00;51.82;100321.81;10492216;28;20285;-66
2023/10/10 00:21:57;;;;;;;15.53;4.40;;;;;;;16.66;50.68;100277.69;10494334;28;20238;-66
2023/10/10 00:27:14;;;;;;;12.50;4.57;;;;;;;15.81;52.27;100332.38;10470565;28;20226;-66
2023/10/10 00:32:22;;;;;;;13.10;4.57;;;;;;;15.41;53.32;100329.56;10459995;28;20254;-66
2023/10/10 00:37:34;;;;;;;12.47;4.47;;;;;;;15.82;52.26;100308.94;10440947;28;20248;-66
2023/10/10 00:42:42;;;;;;;11.27;4.70;;;;;;;15.90;52.04;100292.53;10443960;28;20246;-66
2023/10/10 00:47:50;;;;;;;9.83;4.50;;;;;;;15.12;52.63;100365.78;10443686;28;20335;-66
2023/10/10 00:52:55;;;;;;;10.23;4.30;;;;;;;16.13;50.59;100283.16;10491342;28;20229;-66
2023/10/10 00:57:58;;;;;;;10.10;4.73;;;;;;;15.52;51.18;100339.78;10483900;28;20245;-66
2023/10/10 01:03:19;;;;;;;14.80;5.53;;;;;;;14.55;52.16;100413.47;10488535;28;20246;-66
2023/10/10 01:08:31;;;;;;;17.03;5.13;;;;;;;15.89;50.34;100236.88;10463831;28;20231;-66
2023/10/10 01:13:33;;;;;;;10.73;4.60;;;;;;;14.34;51.91;100366.72;10444617;28;20297;-66
2023/10/10 01:18:41;;;;;;;8.50;4.80;;;;;;;15.33;50.57;100290.16;10443208;28;20246;-65
2023/10/10 01:23:45;;;;;;;9.17;4.60;;;;;;;15.57;49.51;100279.88;10457727;28;20254;-66
2023/10/10 01:28:50;;;;;;;11.33;5.20;;;;;;;15.00;49.95;100359.28;10426999;28;20239;-65
2023/10/10 01:33:51;;;;;;;11.20;5.17;;;;;;;15.27;49.76;100323.31;10474738;28;20328;-65
2023/10/10 01:38:56;;;;;;;10.87;4.53;;;;;;;14.93;50.56;100327.75;10485985;28;20240;-65
2023/10/10 01:44:10;;;;;;;8.07;4.37;;;;;;;15.45;49.55;100294.94;10474004;28;20747;-65
2023/10/10 01:49:13;;;;;;;9.53;5.20;;;;;;;16.84;46.82;100333.78;10444776;28;20796;-65
2023/10/10 01:54:18;;;;;;;9.97;4.93;;;;;;;16.43;47.57;100380.81;10486627;28;20266;-65
2023/10/10 01:59:24;;;;;;;10.33;5.40;;;;;;;16.81;46.77;100359.34;10488786;28;20234;-66
2023/10/10 02:04:29;;;;;;;14.17;4.97;;;;;;;15.07;50.26;100379.03;10478084;28;20239;-65
2023/10/10 02:09:34;;;;;;;9.80;5.23;;;;;;;14.80;50.95;100394.19;10483385;28;20227;-66
2023/10/10 02:14:36;;;;;;;11.50;5.03;;;;;;;14.59;51.80;100332.09;10487958;28;20354;-64
2023/10/10 02:19:41;;;;;;;13.23;4.93;;;;;;;15.25;51.00;100260.69;10487377;28;20616;-65
2023/10/10 02:24:48;;;;;;;10.30;5.37;;;;;;;15.07;50.79;100292.78;10479214;28;20264;-65
2023/10/10 02:29:53;;;;;;;8.70;4.40;;;;;;;15.21;51.01;100267.50;10492292;28;20350;-67
2023/10/10 02:35:26;;;;;;;11.30;5.10;;;;;;;15.45;50.79;100257.19;10462810;28;20231;-65
2023/10/10 02:40:31;;;;;;;8.63;4.97;;;;;;;14.81;51.87;100293.47;10492020;28;20234;-67
2023/10/10 02:45:35;;;;;;;10.80;5.37;;;;;;;14.02;53.08;100379.69;10477576;28;20238;-67
2023/10/10 02:50:40;;;;;;;11.80;4.33;;;;;;;15.39;50.86;100244.53;10489588;28;20737;-67
2023/10/10 02:55:50;;;;;;;13.87;4.83;;;;;;;14.98;51.33;100302.88;10481473;28;20234;-67
2023/10/10 03:00:57;;;;;;;13.20;5.13;;;;;;;14.75;52.55;100244.75;10484449;28;20243;-67
2023/10/10 03:06:06;;;;;;;11.73;5.07;;;;;;;14.70;52.47;100259.84;10459874;28;20268;-67
2023/10/10 03:11:35;;;;;;;12.33;5.40;;;;;;;14.64;52.51;100263.34;10488413;28;20235;-66
2023/10/10 03:16:45;;;;;;;9.40;4.63;;;;;;;14.43;52.24;100315.44;10453021;28;20238;-66
2023/10/10 05:24:09;;;;;;;9.63;4.70;;;;;;;13.31;53.26;100384.88;10495538;28;20241;-63
2023/10/10 05:29:11;;;;;;;11.03;5.13;;;;;;;13.80;53.73;100326.88;10495541;28;20227;-64
2023/10/10 05:34:14;;;;;;;8.30;4.20;;;;;;;13.93;53.20;100318.13;10489751;28;20243;-67
2023/10/10 05:39:21;;;;;;;7.87;4.17;;;;;;;13.99;54.34;100255.47;10493470;28;21385;-66
2023/10/10 05:44:23;;;;;;;10.90;5.47;;;;;;;14.06;52.81;100315.56;10470754;28;20326;-66
2023/10/10 05:49:27;;;;;;;12.60;5.40;;;;;;;14.12;53.96;100234.06;10492977;28;20230;-64
2023/10/10 05:54:32;;;;;;;13.13;5.77;;;;;;;14.02;54.10;100265.84;10488119;28;20345;-67
2023/10/10 05:59:34;;;;;;;6.93;5.00;;;;;;;14.32;53.26;100282.63;10495329;28;20258;-66
2023/10/10 06:04:36;;;;;;;19.90;5.20;;;;;;;12.57;56.74;100390.25;10485252;28;20661;-66
2023/10/10 06:09:41;;;;;;;12.73;4.93;;;;;;;13.41;55.17;100344.28;10494653;28;22612;-66
2023/10/10 06:14:43;;;;;;;10.17;4.37;;;;;;;13.08;56.19;100326.72;10484276;28;20707;-66
2023/10/10 06:19:46;;;;;;;12.30;4.43;;;;;;;12.45;57.87;100311.97;10473909;28;20578;-66
2023/10/10 06:24:47;;;;;;;14.83;5.70;;;;;;;11.68;60.52;100346.00;10477672;28;22215;-66
2023/10/10 06:29:49;;;;;;;11.80;4.50;;;;;;;12.91;57.92;100260.81;10469147;28;20329;-65
2023/10/10 06:35:04;;;;;;;12.60;5.00;;;;;;;13.38;56.85;100272.06;10478662;28;20247;-65
2023/10/10 06:40:08;;;;;;;11.67;5.20;;;;;;;13.02;57.47;100322.06;10488346;28;20237;-66
2023/10/10 06:45:11;;;;;;;13.57;5.23;;;;;;;13.06;56.98;100323.38;10481220;28;20642;-65
2023/10/10 06:50:13;;;;;;;10.37;4.90;;;;;;;13.65;56.11;100281.25;10488111;28;20738;-65
2023/10/10 06:55:21;;;;;;;16.30;4.53;;;;;;;13.66;56.35;100297.16;10477169;28;20234;-66
2023/10/10 07:05:34;;;;;;;12.33;5.73;;;;;;;15.07;53.26;100342.13;10461926;28;20239;-65
2023/10/10 07:10:36;;;;;;;10.97;5.10;;;;;;;14.25;55.37;100357.13;10486125;28;20247;-67
2023/10/10 07:15:39;;;;;;;13.63;6.00;;;;;;;14.07;55.47;100402.50;10484138;28;20237;-65
2023/10/10 07:26:24;;;;;;;12.57;5.30;;;;;;;14.53;54.50;100364.38;10475514;28;20243;-65
2023/10/10 07:31:34;;;;;;;12.93;5.53;;;;;;;15.30;52.46;100368.75;10489298;28;20775;-65
2023/10/10 07:36:36;;;;;;;13.13;5.13;;;;;;;15.20;53.48;100365.63;10479433;28;20235;-65
2023/10/10 07:41:44;;;;;;;13.90;5.67;;;;;;;14.07;54.91;100510.13;10485635;28;20372;-65
2023/10/10 07:52:15;;;;;;;12.73;5.20;;;;;;;15.62;52.14;100433.84;10494713;28;20226;-65
2023/10/10 07:57:28;;;;;;;12.77;5.17;;;;;;;16.06;51.79;100416.28;10485194;28;20227;-65
2023/10/10 08:02:32;;;;;;;12.20;4.97;;;;;;;15.44;53.13;100465.91;10479715;28;20722;-65
2023/10/10 08:07:35;;;;;;;14.43;5.20;;;;;;;14.77;54.70;100485.13;10442949;28;20235;-65
2023/10/10 08:12:37;;;;;;;13.13;5.27;;;;;;;15.94;52.42;100426.00;10455881;28;20239;-66
2023/10/10 08:17:51;;;;;;;10.60;4.57;;;;;;;15.92;52.12;100487.47;10444500;28;20231;-65
2023/10/10 08:22:58;;;;;;;13.50;5.53;;;;;;;15.96;52.72;100420.41;10456103;28;20254;-65
2023/10/10 08:28:00;;;;;;;10.97;5.53;;;;;;;15.61;53.18;100510.41;10448251;28;20275;-65
2023/10/10 08:33:02;;;;;;;15.73;5.90;;;;;;;15.90;53.07;100429.34;10453518;28;20412;-65
2023/10/10 08:38:05;;;;;;;12.60;6.00;;;;;;;16.35;52.89;100389.97;10448240;28;20361;-65
2023/10/10 08:43:09;;;;;;;13.13;5.43;;;;;;;16.18;53.74;100394.91;10436172;28;20273;-66
2023/10/10 08:48:15;;;;;;;13.30;5.00;;;;;;;17.31;51.19;100376.88;10426168;28;20228;-65
2023/10/10 08:53:20;;;;;;;12.47;5.47;;;;;;;16.29;52.92;100461.00;10456152;28;20237;-66
2023/10/10 08:58:22;;;;;;;16.37;5.97;;;;;;;17.10;50.73;100470.75;10447205;28;20235;-66
2023/10/10 09:03:26;;;;;;;14.83;5.27;;;;;;;17.09;51.17;100481.78;10474788;28;20231;-66
2023/10/10 09:08:28;;;;;;;10.50;4.73;;;;;;;17.63;50.71;100437.31;10486388;28;20240;-65
2023/10/10 09:13:31;;;;;;;9.83;4.83;;;;;;;17.83;49.75;100444.50;10497618;28;20257;-65
2023/10/10 09:18:33;;;;;;;16.88;4.93;;;;;;;16.72;51.81;100467.84;10464721;28;20212;-66
2023/10/10 09:23:42;;;;;;;11.68;4.03;;;;;;;17.68;49.52;100453.75;10473696;28;20230;-66
2023/10/10 09:28:55;;;;;;;9.30;4.20;;;;;;;16.79;50.77;100530.88;10483206;28;20755;-66
2023/10/10 09:34:06;;;;;;;8.47;3.93;;;;;;;17.80;49.53;100417.84;10488558;28;20721;-66
2023/10/10 09:39:11;;;;;;;11.03;4.30;;;;;;;18.27;48.46;100440.03;10486419;28;20238;-66
2023/10/10 09:49:40;;;;;;;13.95;4.63;;;;;;;18.21;48.26;100473.44;10482306;28;20720;-65
2023/10/10 09:54:44;;;;;;;11.32;4.30;;;;;;;18.56;47.63;100446.72;10484356;28;20236;-66
2023/10/10 09:59:53;;;;;;;13.93;4.47;;;;;;;18.77;47.80;100445.47;10491276;28;20239;-66
2023/10/10 10:04:55;;;;;;;14.50;4.45;;;;;;;18.51;48.18;100486.34;10484200;28;21024;-66
2023/10/10 10:10:16;;;;;;;12.27;3.95;;;;;;;18.37;48.56;100486.47;10491687;28;20223;-66
2023/10/10 10:15:24;;;;;;;11.18;4.45;;;;;;;18.97;48.24;100434.47;10478914;28;21013;-65
2023/10/10 10:26:04;;;;;;;14.18;4.68;;;;;;;19.20;47.81;100427.56;10479871;28;20234;-65
2023/10/10 10:31:16;;;;;;;12.07;3.92;;;;;;;19.87;47.52;100386.81;10485073;28;20234;-65
2023/10/10 10:36:18;;;;;;;8.20;3.97;;;;;;;20.59;46.57;100394.00;10475721;28;20234;-65
2023/10/10 10:41:41;;;;;;;11.55;3.97;;;;;;;18.83;48.19;100455.44;10471252;28;20272;-65
2023/10/10 10:46:47;;;;;;;9.18;4.10;;;;;;;19.82;46.64;100397.50;10473643;28;20235;-65
2023/10/10 10:52:14;;;;;;;9.43;4.00;;;;;;;19.14;46.97;100494.38;10481699;28;20369;-66
2023/10/10 10:57:27;;;;;;;12.68;4.07;;;;;;;20.37;45.77;100376.63;10451932;28;20237;-65
2023/10/10 11:06:16;;;;;;;10.32;4.22;;;;;;;19.45;46.55;100429.31;10444623;27;21497;-65
2023/10/10 11:11:40;;;;;;;10.43;4.82;;;;;;;19.63;45.98;100399.47;10396411;28;20786;-65
2023/10/10 11:16:46;;;;;;;11.50;4.13;;;;;;;19.06;46.41;100445.84;10384302;28;20229;-65
2023/10/10 11:21:48;;;;;;;10.75;3.75;;;;;;;19.64;46.15;100403.03;10394609;28;20294;-65
2023/10/10 11:32:14;;;;;;;16.58;8.93;;;;;;;20.18;45.09;100346.84;10391638;28;20324;-65
2023/10/10 11:37:30;;;;;;;10.15;4.47;;;;;;;19.88;45.21;100388.44;10380607;28;20876;-65
2023/10/10 11:42:33;;;;;;;14.57;6.25;;;;;;;19.89;44.64;100384.69;10391294;28;20229;-65
2023/10/10 11:47:45;;;;;;;22.45;12.27;;;;;;;20.47;43.31;100347.78;10384987;28;20228;-65
2023/10/10 11:52:57;;;;;;;33.60;17.98;;;;;;;20.37;43.86;100352.19;10394583;28;20238;-66
2023/10/10 11:58:06;;;;;;;72.93;37.42;;;;;;;20.04;43.84;100405.13;10382362;28;20296;-65
2023/10/10 12:03:33;;;;;;;28.73;12.02;;;;;;;19.78;44.11;100360.22;10407120;28;20242;-65
2023/10/10 12:08:37;;;;;;;12.05;5.80;;;;;;;20.07;43.69;100334.03;10425814;28;20254;-65
2023/10/10 12:13:39;;;;;;;13.73;5.38;;;;;;;20.43;42.96;100302.28;10424319;28;20229;-65
2023/10/10 12:18:49;;;;;;;15.38;6.32;;;;;;;20.54;42.71;100314.22;10335346;28;20209;-65
2023/10/10 12:23:55;;;;;;;10.75;5.10;;;;;;;20.44;42.67;100339.28;10364742;28;20236;-65
2023/10/10 12:29:02;;;;;;;8.77;4.40;;;;;;;20.56;42.17;100312.91;10358069;28;20707;-65
2023/10/10 12:34:08;;;;;;;10.55;4.47;;;;;;;20.58;42.38;100302.66;10349913;28;20236;-65
2023/10/10 12:39:14;;;;;;;8.82;4.35;;;;;;;19.90;43.31;100290.47;10359372;28;20383;-65
2023/10/10 12:44:16;;;;;;;9.63;4.10;;;;;;;21.22;41.86;100231.00;10362745;28;20233;-65
2023/10/10 12:49:19;;;;;;;13.48;5.20;;;;;;;20.94;41.15;100272.66;10358234;28;20233;-66
2023/10/10 12:54:21;;;;;;;25.48;10.93;;;;;;;21.57;40.77;100246.34;10364099;28;20335;-65
2023/10/10 12:59:28;;;;;;;21.35;10.38;;;;;;;21.34;40.73;100253.56;10362316;28;20340;-65
2023/10/10 13:04:37;;;;;;;15.65;6.78;;;;;;;20.95;40.91;100296.06;10350134;28;20241;-65
2023/10/10 13:09:43;;;;;;;12.93;5.32;;;;;;;21.84;39.36;100249.22;10358251;28;20237;-66
2023/10/10 13:14:50;;;;;;;10.65;5.20;;;;;;;20.90;39.06;100321.25;10369272;28;20245;-66
2023/10/10 13:19:52;;;;;;;8.50;4.50;;;;;;;22.16;37.97;100238.53;10358729;28;20711;-66
2023/10/10 13:24:54;;;;;;;23.67;10.60;;;;;;;21.44;39.38;100255.63;10352988;28;20822;-67
2023/10/10 13:29:56;;;;;;;17.38;7.95;;;;;;;21.13;38.59;100278.75;10361046;28;20236;-66
2023/10/10 13:34:58;;;;;;;15.50;6.25;;;;;;;21.48;38.66;100269.59;10337041;28;20230;-66
2023/10/10 13:40:05;;;;;;;16.85;6.15;;;;;;;21.58;38.58;100264.34;10364406;28;20286;-66
2023/10/10 13:45:11;;;;;;;8.93;4.60;;;;;;;21.53;38.42;100226.13;10327895;28;20241;-66
2023/10/10 13:50:28;;;;;;;11.75;4.00;;;;;;;20.59;39.30;100255.34;10366861;28;20303;-66
2023/10/10 13:55:34;;;;;;;7.43;4.20;;;;;;;21.16;38.45;100243.69;10351950;28;20232;-66
2023/10/10 14:00:52;;;;;;;8.32;3.78;;;;;;;21.52;38.23;100199.97;10363398;28;20240;-67
2023/10/10 14:06:08;;;;;;;8.73;3.90;;;;;;;21.60;38.32;100172.31;10347133;28;20240;-66
2023/10/10 14:11:20;;;;;;;8.10;3.90;;;;;;;22.11;37.49;100183.97;10359586;28;20307;-66
2023/10/10 14:16:23;;;;;;;10.50;4.20;;;;;;;22.24;37.31;100138.34;10373268;28;20240;-66
2023/10/10 14:21:25;;;;;;;7.32;4.15;;;;;;;22.00;36.75;100195.81;10379499;28;20228;-66
2023/10/10 14:26:30;;;;;;;8.88;4.80;;;;;;;22.37;37.12;100172.56;10364643;28;20247;-66
2023/10/10 14:31:45;;;;;;;8.38;4.60;;;;;;;21.32;38.07;100233.09;10383501;28;20232;-66
2023/10/10 14:36:51;;;;;;;9.10;4.80;;;;;;;20.58;38.45;100204.78;10364695;28;20319;-65
2023/10/10 14:41:58;;;;;;;14.65;5.25;;;;;;;21.29;37.62;100190.03;10363513;28;20228;-66
2023/10/10 14:47:03;;;;;;;10.25;4.65;;;;;;;21.15;37.56;100205.84;10353289;28;20243;-65
2023/10/10 14:52:06;;;;;;;12.38;4.10;;;;;;;21.44;37.66;100178.59;10362672;28;20416;-66
2023/10/10 14:57:21;;;;;;;8.88;4.40;;;;;;;22.19;37.16;100163.63;10326279;28;20229;-70
2023/10/10 15:02:26;;;;;;;10.50;4.55;;;;;;;22.90;36.52;100113.69;10355760;28;20298;-70
2023/10/10 15:07:28;;;;;;;10.65;4.47;;;;;;;22.63;36.78;100119.19;10333854;28;20241;-66
2023/10/10 15:12:33;;;;;;;10.70;4.45;;;;;;;22.02;37.47;100133.72;10355758;28;20779;-65
2023/10/10 15:17:34;;;;;;;7.82;4.57;;;;;;;22.25;38.05;100110.84;10349448;28;20256;-65
2023/10/10 15:22:41;;;;;;;11.63;4.13;;;;;;;22.24;37.95;100122.81;10360555;28;20229;-66
2023/10/10 15:27:43;;;;;;;10.63;4.18;;;;;;;21.70;38.85;100114.47;10346035;28;20233;-68
2023/10/10 15:32:46;;;;;;;7.53;3.55;;;;;;;21.96;38.54;100121.94;10357763;28;20315;-64
2023/10/10 15:37:49;;;;;;;14.27;4.82;;;;;;;21.84;39.20;100114.94;10351950;28;20911;-66
2023/10/10 15:42:52;;;;;;;9.30;3.90;;;;;;;22.29;38.43;100092.91;10339761;28;20585;-65
2023/10/10 15:47:54;;;;;;;10.88;4.15;;;;;;;22.26;39.29;100123.38;10353283;28;20236;-66
2023/10/10 15:52:56;;;;;;;8.48;4.35;;;;;;;22.65;39.17;100090.56;10369298;28;20229;-65
2023/10/10 15:57:58;;;;;;;11.50;4.25;;;;;;;21.99;40.09;100128.78;10354058;28;20231;-65
2023/10/10 16:03:00;;;;;;;10.00;4.25;;;;;;;21.60;40.57;100124.13;10365023;28;20583;-65
2023/10/10 16:08:02;;;;;;;9.85;4.82;;;;;;;21.42;40.58;100121.69;10348285;28;22776;-65
2023/10/10 16:13:10;;;;;;;7.25;4.13;;;;;;;21.30;40.89;100110.03;10360710;28;21058;-65
2023/10/10 16:18:11;;;;;;;11.38;4.50;;;;;;;20.13;41.26;100124.75;10364222;28;20233;-66
2023/10/10 16:23:13;;;;;;;9.10;4.80;;;;;;;20.53;40.36;100085.06;10368442;28;20299;-65
2023/10/10 16:28:15;;;;;;;10.95;4.88;;;;;;;20.81;39.29;100089.66;10345471;28;20281;-65
2023/10/10 16:33:20;;;;;;;8.50;4.45;;;;;;;20.42;39.57;100070.44;10356078;28;20244;-66
2023/10/10 16:38:22;;;;;;;10.48;4.22;;;;;;;20.38;39.48;100090.19;10367813;28;20257;-65
2023/10/10 16:43:24;;;;;;;11.63;4.75;;;;;;;20.49;39.90;100103.75;10399796;28;20314;-66
2023/10/10 16:48:26;;;;;;;9.68;4.45;;;;;;;20.54;39.75;100097.59;10400384;28;20251;-66
2023/10/10 16:53:29;;;;;;;10.07;5.20;;;;;;;20.18;40.28;100080.59;10362745;28;20233;-65
2023/10/10 16:58:31;;;;;;;11.43;5.45;;;;;;;20.78;40.11;100022.16;10401022;28;20240;-65
2023/10/10 17:03:33;;;;;;;12.77;4.82;;;;;;;19.09;41.65;100076.53;10366120;28;20252;-64
2023/10/10 17:08:36;;;;;;;12.27;4.85;;;;;;;19.85;40.69;100048.66;10358976;28;20296;-64
2023/10/10 17:13:38;;;;;;;8.98;4.88;;;;;;;20.71;40.12;100029.63;10360171;28;20713;-65
2023/10/10 17:18:45;;;;;;;8.90;4.30;;;;;;;20.63;39.86;100049.91;10360297;28;20217;-70
2023/10/10 17:23:50;;;;;;;9.98;4.13;;;;;;;20.56;40.19;100076.41;10357693;28;20237;-67
2023/10/10 17:28:54;;;;;;;10.63;4.20;;;;;;;20.84;39.84;100023.91;10343775;28;20382;-67
2023/10/10 17:33:57;;;;;;;10.45;5.25;;;;;;;20.80;40.12;100062.72;10356231;28;20249;-66
2023/10/10 17:39:00;;;;;;;13.13;5.03;;;;;;;21.07;39.40;100049.31;10349640;28;20229;-66
2023/10/10 17:44:08;;;;;;;11.07;4.72;;;;;;;20.27;40.61;100098.16;10352288;28;20345;-67
2023/10/10 17:49:11;;;;;;;8.90;4.13;;;;;;;20.39;40.44;100073.66;10354728;28;20272;-69
2023/10/10 17:54:15;;;;;;;9.80;5.00;;;;;;;20.74;40.01;100090.88;10359102;28;20238;-69
2023/10/10 17:59:19;;;;;;;14.48;5.63;;;;;;;20.24;40.92;100101.34;10343570;28;20261;-68
2023/10/10 18:04:21;;;;;;;9.52;5.00;;;;;;;20.97;40.21;100030.91;10340321;28;20403;-69
2023/10/10 18:09:30;;;;;;;10.55;4.32;;;;;;;20.54;41.27;100047.84;10350118;28;20313;-67
2023/10/10 18:14:34;;;;;;;14.68;4.35;;;;;;;20.13;41.82;100061.47;10350664;28;20875;-68
2023/10/10 18:19:40;;;;;;;13.82;4.55;;;;;;;19.72;42.01;100125.75;10330828;28;20237;-67
2023/10/10 18:24:42;;;;;;;9.15;4.75;;;;;;;20.30;41.53;100028.94;10352191;28;20669;-68
2023/10/10 18:29:43;;;;;;;12.48;4.90;;;;;;;20.30;41.21;100072.41;10350019;28;20331;-68
2023/10/10 18:34:45;;;;;;;11.27;4.88;;;;;;;19.62;42.59;100115.53;10354708;28;20728;-67
2023/10/10 18:39:47;;;;;;;14.43;5.13;;;;;;;19.49;42.91;100108.41;10344194;28;20362;-68
2023/10/10 18:44:48;;;;;;;10.93;4.57;;;;;;;20.26;41.63;100082.09;10353845;28;20236;-67
2023/10/10 18:49:50;;;;;;;11.25;4.88;;;;;;;20.11;42.07;100072.56;10349839;28;20251;-69
2023/10/10 18:54:52;;;;;;;11.13;4.38;;;;;;;20.16;41.64;100106.31;10352069;28;20289;-68
2023/10/10 18:59:54;;;;;;;12.38;4.97;;;;;;;19.74;42.77;100074.78;10349981;28;20479;-69
2023/10/10 19:04:56;;;;;;;15.77;4.55;;;;;;;20.27;41.59;100095.44;10349730;28;20233;-69
2023/10/10 19:10:02;;;;;;;12.73;5.43;;;;;;;20.13;42.53;100056.03;10346207;28;20260;-69
2023/10/10 19:15:04;;;;;;;12.60;5.03;;;;;;;19.70;43.32;100077.13;10348735;28;20233;-70
2023/10/10 19:20:06;;;;;;;10.90;4.88;;;;;;;19.18;43.91;100085.13;10350365;28;20326;-72
2023/10/10 19:25:11;;;;;;;12.40;5.60;;;;;;;20.04;43.06;100038.44;10351421;28;20319;-69
2023/10/10 19:30:16;;;;;;;13.52;4.43;;;;;;;19.62;43.38;100049.53;10352554;28;20233;-69
2023/10/10 19:35:21;;;;;;;12.43;4.82;;;;;;;19.45;43.74;100088.25;10358201;28;20260;-68
2023/10/10 19:40:28;;;;;;;9.95;4.38;;;;;;;19.80;43.30;100049.38;10356049;28;20746;-67
2023/10/10 19:45:30;;;;;;;15.35;5.35;;;;;;;19.04;44.85;100068.28;10358457;28;20240;-68
2023/10/10 19:50:38;;;;;;;9.93;5.18;;;;;;;18.81;45.18;100067.16;10348766;28;20242;-67
2023/10/10 19:55:44;;;;;;;18.25;5.80;;;;;;;18.54;45.79;100063.19;10351330;28;20237;-68
2023/10/10 20:00:46;;;;;;;10.50;5.05;;;;;;;18.25;45.76;100098.97;10354155;28;20730;-70
2023/10/10 20:05:48;;;;;;;8.10;4.25;;;;;;;19.13;44.41;100069.59;10348183;28;20237;-71
2023/10/10 20:10:50;;;;;;;13.25;4.97;;;;;;;17.90;47.11;100040.06;10348606;28;20229;-68
2023/10/10 20:15:52;;;;;;;12.45;4.72;;;;;;;19.24;44.77;100024.53;10353660;28;20626;-68
2023/10/10 20:20:54;;;;;;;11.77;5.47;;;;;;;18.08;46.45;100047.34;10351383;28;20253;-67
2023/10/10 20:25:56;;;;;;;11.98;5.60;;;;;;;17.76;47.51;100045.84;10350310;28;20245;-67
2023/10/10 20:30:58;;;;;;;16.52;6.15;;;;;;;17.65;47.41;100048.25;10350382;28;20344;-67
2023/10/10 20:36:02;;;;;;;14.77;6.20;;;;;;;17.80;47.21;100050.59;10333607;28;20236;-67
2023/10/10 20:41:10;;;;;;;13.32;5.40;;;;;;;18.36;46.18;100056.78;10341638;28;20226;-68
2023/10/10 20:46:17;;;;;;;11.50;5.82;;;;;;;18.87;45.42;100015.78;10353575;28;20252;-68
2023/10/10 20:51:24;;;;;;;18.65;6.47;;;;;;;18.62;45.48;100041.19;10353656;28;20229;-67
2023/10/10 20:56:27;;;;;;;9.38;4.78;;;;;;;17.46;47.53;100054.66;10352143;28;20331;-68
2023/10/10 21:01:29;;;;;;;10.52;5.45;;;;;;;18.59;45.59;100057.91;10359345;28;20321;-67
2023/10/10 21:06:31;;;;;;;9.63;4.95;;;;;;;18.83;44.62;100088.63;10353009;28;20237;-67
2023/10/10 21:11:33;;;;;;;8.88;4.90;;;;;;;18.93;44.89;100079.91;10353660;28;20615;-67
2023/10/10 21:16:35;;;;;;;15.25;5.63;;;;;;;18.31;45.52;100110.00;10350370;28;20238;-67
2023/10/10 21:21:37;;;;;;;13.85;4.97;;;;;;;17.81;46.49;100097.41;10348050;28;20229;-67
2023/10/10 21:26:38;;;;;;;12.63;5.10;;;;;;;17.82;46.55;100102.59;10349687;28;20328;-67
2023/10/10 21:31:41;;;;;;;11.05;4.57;;;;;;;17.15;48.06;100065.34;10337147;28;20233;-67
2023/10/10 21:36:43;;;;;;;12.23;5.63;;;;;;;18.36;45.79;100031.56;10354037;28;20240;-67
2023/10/10 21:41:45;;;;;;;8.88;5.25;;;;;;;18.15;46.23;100066.16;10348175;28;20826;-67
2023/10/10 21:46:50;;;;;;;15.40;5.57;;;;;;;17.49;47.26;100073.16;10347482;28;20244;-68
2023/10/10 21:51:53;;;;;;;8.50;4.70;;;;;;;17.64;46.71;100079.06;10350182;28;20299;-68
2023/10/10 21:56:54;;;;;;;10.45;5.18;;;;;;;17.32;47.35;100098.06;10346521;28;20439;-68
2023/10/10 22:01:56;;;;;;;12.00;5.03;;;;;;;17.53;47.34;100050.84;10350300;28;20358;-67
2023/10/10 22:06:58;;;;;;;11.55;5.40;;;;;;;17.60;47.09;100039.97;10347998;28;20272;-67
2023/10/10 22:12:00;;;;;;;11.73;5.82;;;;;;;15.68;50.56;100127.34;10349451;28;20279;-68
2023/10/10 22:17:07;;;;;;;15.38;5.57;;;;;;;16.72;49.45;100022.00;10348274;28;20716;-68
2023/10/10 22:22:10;;;;;;;11.90;5.75;;;;;;;16.94;48.83;100036.81;10352317;28;20233;-67
2023/10/10 22:27:12;;;;;;;11.10;5.07;;;;;;;17.16;48.18;100020.22;10323415;28;20238;-67
2023/10/10 22:32:15;;;;;;;12.17;5.47;;;;;;;17.77;47.69;99959.03;10334315;28;20241;-67
2023/10/10 22:37:17;;;;;;;11.17;5.47;;;;;;;16.31;49.23;100115.13;10346361;28;20257;-67
2023/10/10 22:42:19;;;;;;;10.57;4.75;;;;;;;17.59;46.91;100032.88;10346518;28;21210;-67
2023/10/10 22:47:21;;;;;;;10.57;5.05;;;;;;;17.46;47.32;100020.34;10334707;28;20342;-67
2023/10/10 22:52:23;;;;;;;13.20;5.93;;;;;;;16.59;48.68;100058.06;10335770;28;20731;-67
2023/10/10 22:57:24;;;;;;;10.52;5.55;;;;;;;16.22;49.09;100085.66;10346787;28;20270;-67
2023/10/10 23:02:30;;;;;;;10.05;5.53;;;;;;;16.53;48.90;100026.50;10346300;28;21349;-67
2023/10/10 23:07:33;;;;;;;10.75;5.45;;;;;;;17.00;47.80;100005.38;10334904;28;20244;-67
2023/10/10 23:12:36;;;;;;;13.63;5.37;;;;;;;16.35;48.60;100038.88;10327611;28;20285;-67
2023/10/10 23:17:39;;;;;;;10.70;5.47;;;;;;;16.66;47.97;100022.91;10345803;28;20233;-67
2023/10/10 23:22:42;;;;;;;11.10;5.00;;;;;;;16.40;48.27;100073.34;10333589;28;20299;-67
2023/10/10 23:27:44;;;;;;;9.33;5.13;;;;;;;17.21;47.09;99984.38;10330206;28;20318;-67
2023/10/10 23:32:46;;;;;;;12.80;5.63;;;;;;;17.43;46.67;100011.84;10347102;28;20233;-67
2023/10/10 23:37:52;;;;;;;10.47;5.50;;;;;;;16.50;47.86;100046.69;10328337;28;20233;-67
2023/10/10 23:42:54;;;;;;;9.68;4.90;;;;;;;16.66;47.57;100076.94;10347068;28;20229;-67
2023/10/10 23:47:56;;;;;;;10.73;5.07;;;;;;;16.50;48.39;100057.50;10338994;28;20235;-67
2023/10/10 23:53:02;;;;;;;10.27;5.73;;;;;;;16.37;48.08;100090.81;10342006;28;20376;-67
2023/10/10 23:58:05;;;;;;;15.47;5.67;;;;;;;16.56;48.18;100070.13;10340464;28;20225;-67
